createdAt,value
2017-07-29T00:00:05.673Z,91.6
2017-07-29T00:00:46.554Z,92.9
2017-07-29T00:01:27.734Z,93.0
2017-07-29T00:02:08.818Z,92.7
2017-07-29T00:02:49.899Z,92.8
2017-07-29T00:03:30.879Z,92.6
2017-07-29T00:04:11.759Z,93.0
2017-07-29T00:04:52.846Z,92.8
2017-07-29T00:05:33.942Z,91.8
2017-07-29T00:06:14.817Z,92.1
2017-07-29T00:06:55.795Z,92.1
2017-07-29T00:07:36.979Z,92.0
2017-07-29T00:08:18.065Z,92.0
2017-07-29T00:08:59.044Z,92.0
2017-07-29T00:09:39.922Z,92.1
2017-07-29T00:10:21.096Z,91.9
2017-07-29T00:11:02.083Z,92.0
2017-07-29T00:11:43.155Z,92.1
2017-07-29T00:12:23.837Z,91.9
2017-07-29T00:13:04.922Z,92.1
2017-07-29T00:13:45.901Z,92.4
2017-07-29T00:14:26.984Z,92.1
2017-07-29T00:15:08.066Z,92.3
2017-07-29T00:15:49.053Z,92.7
2017-07-29T00:16:29.929Z,92.6
2017-07-29T00:17:11.114Z,92.7
2017-07-29T00:17:51.998Z,92.7
2017-07-29T00:18:33.079Z,92.6
2017-07-29T00:19:14.159Z,92.6
2017-07-29T00:19:55.033Z,93.1
2017-07-29T00:20:36.228Z,93.5
2017-07-29T00:21:17.211Z,93.4
2017-07-29T00:21:58.415Z,93.4
2017-07-29T00:22:39.472Z,93.1
2017-07-29T00:23:20.445Z,93.2
2017-07-29T00:24:01.434Z,93.2
2017-07-29T00:24:42.410Z,93.1
2017-07-29T00:25:23.487Z,93.2
2017-07-29T00:26:04.471Z,93.2
2017-07-29T00:26:45.565Z,93.0
2017-07-29T00:27:26.642Z,92.9
2017-07-29T00:28:07.623Z,93.1
2017-07-29T00:28:48.706Z,93.5
2017-07-29T00:29:29.681Z,93.4
2017-07-29T00:30:10.762Z,93.0
2017-07-29T00:30:51.747Z,93.2
2017-07-29T00:31:32.724Z,93.3
2017-07-29T00:32:13.707Z,93.4
2017-07-29T00:32:54.587Z,93.5
2017-07-29T00:33:35.578Z,93.1
2017-07-29T00:34:16.649Z,93.2
2017-07-29T00:34:57.344Z,93.4
2017-07-29T00:35:38.526Z,93.3
2017-07-29T00:36:19.509Z,93.1
2017-07-29T00:37:00.493Z,93.3
2017-07-29T00:37:41.477Z,94.1
2017-07-29T00:38:22.557Z,94.2
2017-07-29T00:39:03.637Z,93.9
2017-07-29T00:39:44.624Z,94.4
2017-07-29T00:40:25.805Z,93.6
2017-07-29T00:41:07.092Z,94.0
2017-07-29T00:41:48.175Z,93.9
2017-07-29T00:42:29.155Z,94.4
2017-07-29T00:43:10.244Z,94.2
2017-07-29T00:43:51.322Z,94.3
2017-07-29T00:44:32.303Z,93.1
2017-07-29T00:45:13.302Z,93.4
2017-07-29T00:45:54.192Z,93.1
2017-07-29T00:46:35.276Z,93.3
2017-07-29T00:47:16.359Z,93.4
2017-07-29T00:47:57.647Z,93.1
2017-07-29T00:48:38.531Z,93.7
2017-07-29T00:49:19.540Z,93.5
2017-07-29T00:50:00.522Z,93.2
2017-07-29T00:50:41.699Z,93.2
2017-07-29T00:51:22.781Z,93.5
2017-07-29T00:52:04.056Z,92.9
2017-07-29T00:52:45.148Z,93.4
2017-07-29T00:53:26.136Z,92.9
2017-07-29T00:54:07.119Z,93.4
2017-07-29T00:54:48.104Z,93.6
2017-07-29T00:55:29.085Z,93.3
2017-07-29T00:56:10.165Z,93.4
2017-07-29T00:56:51.345Z,93.3
2017-07-29T00:57:32.327Z,94.3
2017-07-29T00:58:13.307Z,93.3
2017-07-29T00:58:54.395Z,93.7
2017-07-29T00:59:35.377Z,93.4
2017-07-29T01:00:16.468Z,93.2
2017-07-29T01:00:58.056Z,93.2
2017-07-29T01:01:39.141Z,93.5
2017-07-29T01:02:20.128Z,93.7
2017-07-29T01:03:01.303Z,93.3
2017-07-29T01:03:42.473Z,94.4
2017-07-29T01:04:23.349Z,94.2
2017-07-29T01:05:04.443Z,93.5
2017-07-29T01:05:45.533Z,94.1
2017-07-29T01:06:26.609Z,93.6
2017-07-29T01:07:07.501Z,93.2
2017-07-29T01:07:48.575Z,93.3
2017-07-29T01:08:29.568Z,93.2
2017-07-29T01:09:10.648Z,93.2
2017-07-29T01:09:51.955Z,93.5
2017-07-29T01:10:33.140Z,92.9
2017-07-29T01:11:14.124Z,92.8
2017-07-29T01:11:55.114Z,93.2
2017-07-29T01:12:36.196Z,93.0
2017-07-29T01:13:17.072Z,92.9
2017-07-29T01:13:57.962Z,93.3
2017-07-29T01:14:38.946Z,93.2
2017-07-29T01:15:19.935Z,93.3
2017-07-29T01:16:01.009Z,93.1
2017-07-29T01:16:41.991Z,93.2
2017-07-29T01:17:23.074Z,93.2
2017-07-29T01:18:04.161Z,93.2
2017-07-29T01:18:45.243Z,93.3
2017-07-29T01:19:26.327Z,93.4
2017-07-29T01:20:07.308Z,93.2
2017-07-29T01:20:48.397Z,93.2
2017-07-29T01:21:29.482Z,93.1
2017-07-29T01:22:10.567Z,93.2
2017-07-29T01:22:51.665Z,93.1
2017-07-29T01:23:32.649Z,93.3
2017-07-29T01:24:13.833Z,93.1
2017-07-29T01:24:54.815Z,93.1
2017-07-29T01:25:35.997Z,93.3
2017-07-29T01:26:16.998Z,93.3
2017-07-29T01:26:58.361Z,93.4
2017-07-29T01:27:39.451Z,93.2
2017-07-29T01:28:20.341Z,93.0
2017-07-29T01:29:01.323Z,93.2
2017-07-29T01:29:42.413Z,93.1
2017-07-29T01:30:23.591Z,93.1
2017-07-29T01:31:04.581Z,93.5
2017-07-29T01:31:45.566Z,93.3
2017-07-29T01:32:26.651Z,93.1
2017-07-29T01:33:07.736Z,93.1
2017-07-29T01:33:49.817Z,93.4
2017-07-29T01:34:30.796Z,93.1
2017-07-29T01:35:11.792Z,93.1
2017-07-29T01:35:52.774Z,93.3
2017-07-29T01:36:33.654Z,93.3
2017-07-29T01:37:14.645Z,93.3
2017-07-29T01:37:55.719Z,93.4
2017-07-29T01:38:36.697Z,93.1
2017-07-29T01:39:17.893Z,93.2
2017-07-29T01:39:59.072Z,93.2
2017-07-29T01:40:39.970Z,93.2
2017-07-29T01:41:21.051Z,93.3
2017-07-29T01:42:02.035Z,93.1
2017-07-29T01:42:43.119Z,93.0
2017-07-29T01:43:24.209Z,93.3
2017-07-29T01:44:05.301Z,93.1
2017-07-29T01:44:46.388Z,93.0
2017-07-29T01:45:27.384Z,93.0
2017-07-29T01:46:08.477Z,92.5
2017-07-29T01:46:49.358Z,92.5
2017-07-29T01:47:30.342Z,92.6
2017-07-29T01:48:11.325Z,92.6
2017-07-29T01:48:52.417Z,93.0
2017-07-29T01:49:33.496Z,93.0
2017-07-29T01:50:14.691Z,92.9
2017-07-29T01:50:55.570Z,92.6
2017-07-29T01:51:36.560Z,92.9
2017-07-29T01:52:17.958Z,92.7
2017-07-29T01:52:58.848Z,92.6
2017-07-29T01:53:39.935Z,92.6
2017-07-29T01:54:21.023Z,92.7
2017-07-29T01:55:02.003Z,92.6
2017-07-29T01:55:42.982Z,92.6
2017-07-29T01:56:23.966Z,92.6
2017-07-29T01:57:05.148Z,92.9
2017-07-29T01:57:46.332Z,92.6
2017-07-29T01:58:27.518Z,92.6
2017-07-29T01:59:08.494Z,92.7
2017-07-29T01:59:49.483Z,93.0
2017-07-29T02:00:30.467Z,92.8
2017-07-29T02:01:11.546Z,92.6
2017-07-29T02:01:52.526Z,92.7
2017-07-29T02:02:33.608Z,92.3
2017-07-29T02:03:14.701Z,92.0
2017-07-29T02:03:55.673Z,91.9
2017-07-29T02:04:37.162Z,92.1
2017-07-29T02:05:18.356Z,92.1
2017-07-29T02:05:59.439Z,92.0
2017-07-29T02:06:40.422Z,91.8
2017-07-29T02:07:21.399Z,92.0
2017-07-29T02:08:02.583Z,92.0
2017-07-29T02:08:43.661Z,92.1
2017-07-29T02:09:24.744Z,92.1
2017-07-29T02:10:05.821Z,91.9
2017-07-29T02:10:46.805Z,91.9
2017-07-29T02:11:27.876Z,91.7
2017-07-29T02:12:08.860Z,91.9
2017-07-29T02:12:49.837Z,91.8
2017-07-29T02:13:30.923Z,91.9
2017-07-29T02:14:12.004Z,91.9
2017-07-29T02:14:55.913Z,92.0
2017-07-29T02:15:36.904Z,92.2
2017-07-29T02:16:17.786Z,92.0
2017-07-29T02:16:58.973Z,92.2
2017-07-29T02:17:40.151Z,92.3
2017-07-29T02:18:21.236Z,91.9
2017-07-29T02:19:02.322Z,91.6
2017-07-29T02:19:43.208Z,91.8
2017-07-29T02:20:24.199Z,91.8
2017-07-29T02:21:05.275Z,91.6
2017-07-29T02:21:46.456Z,91.8
2017-07-29T02:22:27.536Z,92.0
2017-07-29T02:23:08.518Z,91.8
2017-07-29T02:23:49.509Z,91.9
2017-07-29T02:24:30.482Z,91.6
2017-07-29T02:25:11.480Z,91.3
2017-07-29T02:25:52.359Z,91.4
2017-07-29T02:26:33.440Z,91.2
2017-07-29T02:27:14.525Z,91.2
2017-07-29T02:27:55.497Z,91.2
2017-07-29T02:28:36.486Z,91.2
2017-07-29T02:29:17.684Z,91.2
2017-07-29T02:29:58.768Z,91.3
2017-07-29T02:30:39.649Z,90.4
2017-07-29T02:31:20.521Z,90.7
2017-07-29T02:32:01.507Z,90.5
2017-07-29T02:32:42.492Z,90.4
2017-07-29T02:33:23.578Z,90.6
2017-07-29T02:34:04.664Z,90.2
2017-07-29T02:34:45.778Z,90.0
2017-07-29T02:35:26.745Z,90.4
2017-07-29T02:36:07.829Z,89.9
2017-07-29T02:36:48.822Z,89.8
2017-07-29T02:37:29.919Z,89.7
2017-07-29T02:38:10.910Z,89.4
2017-07-29T02:38:52.096Z,89.4
2017-07-29T02:39:33.181Z,89.1
2017-07-29T02:40:14.674Z,89.3
2017-07-29T02:40:55.763Z,89.5
2017-07-29T02:41:36.952Z,88.9
2017-07-29T02:42:18.043Z,89.5
2017-07-29T02:42:59.047Z,89.3
2017-07-29T02:43:40.124Z,89.5
2017-07-29T02:44:21.221Z,89.1
2017-07-29T02:45:02.210Z,89.1
2017-07-29T02:45:43.195Z,88.8
2017-07-29T02:46:24.181Z,88.9
2017-07-29T02:47:05.168Z,89.1
2017-07-29T02:47:46.357Z,88.6
2017-07-29T02:48:27.343Z,88.7
2017-07-29T02:49:08.432Z,88.7
2017-07-29T02:49:49.418Z,88.4
2017-07-29T02:50:30.510Z,88.6
2017-07-29T02:51:11.492Z,88.7
2017-07-29T02:51:52.381Z,88.5
2017-07-29T02:52:33.565Z,88.3
2017-07-29T02:53:14.649Z,88.3
2017-07-29T02:53:55.543Z,88.6
2017-07-29T02:54:36.535Z,88.7
2017-07-29T02:55:17.626Z,88.8
2017-07-29T02:55:58.708Z,88.5
2017-07-29T02:56:39.697Z,88.3
2017-07-29T02:57:20.691Z,88.3
2017-07-29T02:58:01.781Z,88.6
2017-07-29T02:58:42.768Z,88.7
2017-07-29T02:59:23.755Z,88.3
2017-07-29T03:00:04.949Z,88.3
2017-07-29T03:00:46.043Z,88.0
2017-07-29T03:01:27.028Z,88.4
2017-07-29T03:02:08.029Z,88.3
2017-07-29T03:02:49.120Z,88.3
2017-07-29T03:03:30.210Z,88.3
2017-07-29T03:04:11.397Z,88.1
2017-07-29T03:04:52.393Z,88.4
2017-07-29T03:05:33.693Z,88.4
2017-07-29T03:06:14.782Z,88.3
2017-07-29T03:06:55.775Z,88.3
2017-07-29T03:07:36.778Z,88.5
2017-07-29T03:08:17.864Z,87.9
2017-07-29T03:08:59.042Z,87.9
2017-07-29T03:09:40.232Z,87.9
2017-07-29T03:10:21.226Z,87.8
2017-07-29T03:11:02.516Z,87.8
2017-07-29T03:11:43.604Z,87.7
2017-07-29T03:12:24.697Z,88.0
2017-07-29T03:13:05.791Z,88.2
2017-07-29T03:13:46.974Z,88.2
2017-07-29T03:14:28.160Z,87.2
2017-07-29T03:15:09.348Z,87.7
2017-07-29T03:15:50.430Z,87.7
2017-07-29T03:16:31.521Z,87.4
2017-07-29T03:17:12.718Z,87.5
2017-07-29T03:17:53.910Z,87.1
2017-07-29T03:18:34.909Z,87.3
2017-07-29T03:19:15.999Z,87.4
2017-07-29T03:19:57.087Z,87.4
2017-07-29T03:20:37.974Z,87.4
2017-07-29T03:21:19.073Z,87.1
2017-07-29T03:22:00.058Z,87.2
2017-07-29T03:22:41.151Z,87.0
2017-07-29T03:23:22.131Z,87.2
2017-07-29T03:24:03.021Z,87.2
2017-07-29T03:24:44.213Z,87.2
2017-07-29T03:25:25.200Z,87.4
2017-07-29T03:26:06.289Z,86.7
2017-07-29T03:26:47.378Z,86.6
2017-07-29T03:27:28.466Z,87.0
2017-07-29T03:28:09.450Z,86.5
2017-07-29T03:28:50.639Z,86.7
2017-07-29T03:29:31.633Z,86.4
2017-07-29T03:30:12.619Z,86.9
2017-07-29T03:30:53.720Z,86.7
2017-07-29T03:31:34.693Z,86.9
2017-07-29T03:32:15.682Z,86.9
2017-07-29T03:32:56.869Z,86.2
2017-07-29T03:33:37.876Z,86.6
2017-07-29T03:34:18.964Z,86.9
2017-07-29T03:35:00.067Z,86.7
2017-07-29T03:35:41.367Z,86.7
2017-07-29T03:36:22.351Z,86.6
2017-07-29T03:37:03.352Z,86.7
2017-07-29T03:37:44.340Z,86.7
2017-07-29T03:38:25.428Z,86.6
2017-07-29T03:39:06.517Z,86.3
2017-07-29T03:39:47.709Z,86.2
2017-07-29T03:40:28.802Z,86.7
2017-07-29T03:41:09.689Z,86.3
2017-07-29T03:41:50.672Z,86.4
2017-07-29T03:42:31.867Z,86.6
2017-07-29T03:43:12.948Z,86.2
2017-07-29T03:43:54.045Z,86.2
2017-07-29T03:44:35.127Z,86.4
2017-07-29T03:45:16.320Z,86.4
2017-07-29T03:45:57.397Z,85.9
2017-07-29T03:46:38.401Z,86.0
2017-07-29T03:47:19.495Z,86.1
2017-07-29T03:48:00.687Z,86.1
2017-07-29T03:48:41.781Z,85.6
2017-07-29T03:49:22.761Z,85.5
2017-07-29T03:50:03.758Z,86.0
2017-07-29T03:50:44.955Z,85.8
2017-07-29T03:51:26.147Z,85.9
2017-07-29T03:52:07.036Z,85.4
2017-07-29T03:52:48.021Z,85.6
2017-07-29T03:53:29.211Z,85.8
2017-07-29T03:54:10.301Z,85.6
2017-07-29T03:54:51.393Z,85.7
2017-07-29T03:55:32.385Z,85.7
2017-07-29T03:56:13.477Z,85.7
2017-07-29T03:56:54.566Z,85.7
2017-07-29T03:57:35.754Z,85.7
2017-07-29T03:58:16.749Z,85.7
2017-07-29T03:58:57.735Z,85.5
2017-07-29T03:59:38.823Z,85.5
2017-07-29T04:00:19.810Z,85.6
2017-07-29T04:01:00.899Z,85.9
2017-07-29T04:01:41.887Z,85.6
2017-07-29T04:02:22.878Z,85.9
2017-07-29T04:03:03.977Z,85.7
2017-07-29T04:03:45.062Z,85.6
2017-07-29T04:04:26.152Z,85.6
2017-07-29T04:05:07.239Z,85.6
2017-07-29T04:05:48.329Z,85.3
2017-07-29T04:06:29.337Z,85.2
2017-07-29T04:07:10.307Z,85.4
2017-07-29T04:07:51.201Z,85.6
2017-07-29T04:08:32.292Z,85.1
2017-07-29T04:09:13.284Z,85.7
2017-07-29T04:09:54.175Z,85.6
2017-07-29T04:10:35.265Z,85.0
2017-07-29T04:11:16.561Z,85.0
2017-07-29T04:11:57.646Z,85.1
2017-07-29T04:12:38.752Z,85.0
2017-07-29T04:13:19.843Z,85.0
2017-07-29T04:14:00.834Z,85.4
2017-07-29T04:14:41.922Z,84.9
2017-07-29T04:15:23.013Z,84.9
2017-07-29T04:16:04.203Z,85.1
2017-07-29T04:16:45.201Z,85.1
2017-07-29T04:17:26.195Z,85.1
2017-07-29T04:18:07.173Z,85.3
2017-07-29T04:18:48.170Z,84.9
2017-07-29T04:19:29.159Z,84.9
2017-07-29T04:20:10.254Z,84.7
2017-07-29T04:20:51.142Z,85.0
2017-07-29T04:21:32.131Z,84.5
2017-07-29T04:22:13.228Z,84.6
2017-07-29T04:22:54.328Z,84.4
2017-07-29T04:23:35.429Z,84.4
2017-07-29T04:24:16.620Z,84.9
2017-07-29T04:24:57.611Z,84.9
2017-07-29T04:25:38.701Z,84.6
2017-07-29T04:26:19.792Z,84.6
2017-07-29T04:27:00.790Z,84.8
2017-07-29T04:27:41.974Z,84.8
2017-07-29T04:28:22.872Z,84.4
2017-07-29T04:29:03.877Z,84.7
2017-07-29T04:29:44.909Z,84.2
2017-07-29T04:30:26.207Z,84.4
2017-07-29T04:31:07.720Z,84.2
2017-07-29T04:31:49.325Z,84.5
2017-07-29T04:32:31.039Z,84.8
2017-07-29T04:33:12.159Z,84.2
2017-07-29T04:33:53.764Z,83.7
2017-07-29T04:34:34.973Z,83.9
2017-07-29T04:35:15.977Z,84.5
2017-07-29T04:35:56.990Z,84.2
2017-07-29T04:36:38.081Z,83.8
2017-07-29T04:37:19.692Z,83.4
2017-07-29T04:38:00.701Z,83.7
2017-07-29T04:38:41.919Z,83.9
2017-07-29T04:39:23.028Z,84.0
2017-07-29T04:40:04.837Z,83.8
2017-07-29T04:40:46.151Z,83.7
2017-07-29T04:41:27.268Z,83.5
2017-07-29T04:42:08.475Z,83.6
2017-07-29T04:42:50.270Z,83.4
2017-07-29T04:43:31.366Z,83.6
2017-07-29T04:44:12.460Z,83.4
2017-07-29T04:44:54.362Z,83.3
2017-07-29T04:45:35.656Z,83.6
2017-07-29T04:46:16.847Z,82.9
2017-07-29T04:46:58.046Z,83.2
2017-07-29T04:47:39.132Z,82.9
2017-07-29T04:48:20.129Z,83.5
2017-07-29T04:49:01.223Z,82.8
2017-07-29T04:49:42.218Z,83.0
2017-07-29T04:50:23.408Z,82.8
2017-07-29T04:51:04.407Z,82.9
2017-07-29T04:51:45.495Z,82.9
2017-07-29T04:52:26.490Z,83.0
2017-07-29T04:53:07.481Z,82.8
2017-07-29T04:53:48.579Z,82.6
2017-07-29T04:54:29.669Z,83.0
2017-07-29T04:55:10.764Z,82.8
2017-07-29T04:55:51.762Z,82.2
2017-07-29T04:56:32.757Z,82.4
2017-07-29T04:57:13.754Z,82.2
2017-07-29T04:57:54.845Z,82.9
2017-07-29T04:58:35.840Z,82.9
2017-07-29T04:59:16.828Z,82.7
2017-07-29T04:59:58.021Z,82.5
2017-07-29T05:00:39.276Z,82.4
2017-07-29T05:01:20.264Z,82.7
2017-07-29T05:02:01.257Z,82.4
2017-07-29T05:02:42.340Z,82.3
2017-07-29T05:03:23.440Z,83.0
2017-07-29T05:04:04.332Z,82.3
2017-07-29T05:04:45.431Z,82.5
2017-07-29T05:05:26.523Z,82.5
2017-07-29T05:06:07.617Z,82.6
2017-07-29T05:06:48.617Z,82.4
2017-07-29T05:07:29.806Z,82.4
2017-07-29T05:08:10.803Z,82.6
2017-07-29T05:08:51.791Z,82.5
2017-07-29T05:09:32.784Z,82.0
2017-07-29T05:10:13.882Z,82.4
2017-07-29T05:10:55.272Z,82.5
2017-07-29T05:11:36.474Z,81.7
2017-07-29T05:12:17.664Z,82.5
2017-07-29T05:12:58.766Z,82.1
2017-07-29T05:13:39.755Z,81.6
2017-07-29T05:14:20.875Z,82.2
2017-07-29T05:15:02.168Z,81.6
2017-07-29T05:15:43.262Z,81.6
2017-07-29T05:16:24.359Z,81.9
2017-07-29T05:17:05.442Z,81.8
2017-07-29T05:17:46.639Z,81.9
2017-07-29T05:18:27.832Z,81.4
2017-07-29T05:19:08.923Z,81.3
2017-07-29T05:19:50.028Z,81.9
2017-07-29T05:20:31.256Z,81.5
2017-07-29T05:21:12.358Z,81.6
2017-07-29T05:21:53.440Z,81.4
2017-07-29T05:22:34.338Z,81.2
2017-07-29T05:23:15.452Z,82.1
2017-07-29T05:23:56.636Z,81.4
2017-07-29T05:24:37.830Z,81.1
2017-07-29T05:25:19.229Z,81.3
2017-07-29T05:26:00.332Z,81.2
2017-07-29T05:26:41.422Z,81.1
2017-07-29T05:27:22.619Z,81.2
2017-07-29T05:28:03.613Z,81.3
2017-07-29T05:28:44.705Z,81.0
2017-07-29T05:29:26.401Z,80.9
2017-07-29T05:30:08.208Z,80.7
2017-07-29T05:30:49.805Z,81.2
2017-07-29T05:31:31.192Z,80.5
2017-07-29T05:32:12.286Z,80.9
2017-07-29T05:32:53.287Z,80.7
2017-07-29T05:33:34.484Z,80.3
2017-07-29T05:34:15.474Z,80.4
2017-07-29T05:34:56.668Z,80.7
2017-07-29T05:35:37.759Z,80.1
2017-07-29T05:36:18.949Z,79.5
2017-07-29T05:37:00.056Z,80.5
2017-07-29T05:37:41.050Z,80.1
2017-07-29T05:38:22.182Z,80.1
2017-07-29T05:39:03.278Z,80.5
2017-07-29T05:39:44.571Z,80.4
2017-07-29T05:40:25.770Z,79.9
2017-07-29T05:41:07.194Z,79.8
2017-07-29T05:41:49.171Z,79.5
2017-07-29T05:42:30.256Z,79.4
2017-07-29T05:43:11.450Z,79.8
2017-07-29T05:43:52.445Z,79.9
2017-07-29T05:44:33.538Z,80.0
2017-07-29T05:45:14.540Z,79.9
2017-07-29T05:45:55.624Z,79.9
2017-07-29T05:46:36.623Z,79.7
2017-07-29T05:47:17.616Z,80.3
2017-07-29T05:47:58.614Z,81.2
2017-07-29T05:48:39.711Z,80.4
2017-07-29T05:49:20.804Z,80.1
2017-07-29T05:50:02.009Z,80.5
2017-07-29T05:50:42.909Z,80.5
2017-07-29T05:51:23.909Z,80.2
2017-07-29T05:52:05.005Z,80.5
2017-07-29T05:52:46.095Z,79.9
2017-07-29T05:53:27.093Z,79.9
2017-07-29T05:54:08.178Z,80.0
2017-07-29T05:54:49.275Z,80.1
2017-07-29T05:55:30.582Z,80.4
2017-07-29T05:56:11.575Z,79.8
2017-07-29T05:56:52.673Z,79.7
2017-07-29T05:57:33.766Z,79.6
2017-07-29T05:58:14.763Z,79.8
2017-07-29T05:58:55.961Z,78.9
2017-07-29T05:59:37.156Z,79.5
2017-07-29T06:00:18.451Z,79.8
2017-07-29T06:00:59.444Z,79.9
2017-07-29T06:01:40.436Z,79.8
2017-07-29T06:02:21.642Z,79.4
2017-07-29T06:03:02.732Z,79.4
2017-07-29T06:03:43.723Z,79.1
2017-07-29T06:04:24.723Z,78.1
2017-07-29T06:05:05.917Z,77.9
2017-07-29T06:05:47.037Z,77.7
2017-07-29T06:06:27.935Z,77.2
2017-07-29T06:07:09.027Z,76.8
2017-07-29T06:07:50.116Z,77.2
2017-07-29T06:08:31.117Z,76.7
2017-07-29T06:09:12.316Z,75.8
2017-07-29T06:09:53.298Z,75.9
2017-07-29T06:10:34.495Z,75.2
2017-07-29T06:11:15.590Z,75.1
2017-07-29T06:11:56.685Z,75.0
2017-07-29T06:12:37.687Z,75.5
2017-07-29T06:13:18.679Z,75.1
2017-07-29T06:13:59.776Z,75.1
2017-07-29T06:14:40.873Z,74.6
2017-07-29T06:15:21.973Z,74.7
2017-07-29T06:16:03.060Z,73.5
2017-07-29T06:16:44.060Z,73.9
2017-07-29T06:17:25.059Z,73.6
2017-07-29T06:18:06.155Z,72.8
2017-07-29T06:18:47.157Z,72.7
2017-07-29T06:19:28.146Z,72.7
2017-07-29T06:20:09.155Z,72.6
2017-07-29T06:20:50.244Z,70.7
2017-07-29T06:21:31.237Z,69.9
2017-07-29T06:22:12.237Z,69.3
2017-07-29T06:22:53.328Z,69.8
2017-07-29T06:23:34.422Z,69.7
2017-07-29T06:24:15.420Z,69.7
2017-07-29T06:24:56.514Z,69.9
2017-07-29T06:25:37.616Z,70.0
2017-07-29T06:26:18.928Z,70.5
2017-07-29T06:27:00.217Z,70.9
2017-07-29T06:27:41.208Z,70.5
2017-07-29T06:28:22.406Z,70.3
2017-07-29T06:29:03.505Z,70.1
2017-07-29T06:29:44.603Z,69.7
2017-07-29T06:30:25.600Z,70.4
2017-07-29T06:31:06.892Z,70.7
2017-07-29T06:31:47.892Z,71.2
2017-07-29T06:32:29.390Z,71.1
2017-07-29T06:33:10.693Z,70.7
2017-07-29T06:33:51.882Z,71.1
2017-07-29T06:34:32.982Z,70.2
2017-07-29T06:35:14.188Z,70.0
2017-07-29T06:35:55.283Z,69.8
2017-07-29T06:36:36.487Z,70.6
2017-07-29T06:37:17.487Z,69.7
2017-07-29T06:37:58.694Z,70.0
2017-07-29T06:38:39.882Z,70.5
2017-07-29T06:39:20.883Z,69.7
2017-07-29T06:40:01.881Z,69.7
2017-07-29T06:40:43.091Z,69.0
2017-07-29T06:41:24.297Z,69.7
2017-07-29T06:42:05.500Z,69.4
2017-07-29T06:42:46.702Z,69.6
2017-07-29T06:43:27.919Z,69.5
2017-07-29T06:44:09.092Z,70.4
2017-07-29T06:44:50.190Z,70.2
2017-07-29T06:45:31.288Z,70.8
2017-07-29T06:46:12.592Z,70.7
2017-07-29T06:46:53.683Z,70.9
2017-07-29T06:47:34.889Z,71.5
2017-07-29T06:48:16.178Z,69.4
2017-07-29T06:48:57.382Z,68.4
2017-07-29T06:49:38.490Z,67.5
2017-07-29T06:50:19.481Z,66.3
2017-07-29T06:51:00.696Z,66.9
2017-07-29T06:51:41.895Z,66.9
2017-07-29T06:52:22.997Z,66.1
2017-07-29T06:53:04.088Z,66.0
2017-07-29T06:53:45.201Z,66.9
2017-07-29T06:54:26.302Z,67.1
2017-07-29T06:55:07.308Z,67.0
2017-07-29T06:55:48.699Z,67.8
2017-07-29T06:56:29.699Z,67.9
2017-07-29T06:57:10.798Z,68.0
2017-07-29T06:57:51.889Z,67.5
2017-07-29T06:58:32.991Z,67.2
2017-07-29T06:59:13.988Z,66.9
2017-07-29T06:59:55.087Z,66.0
2017-07-29T07:00:36.279Z,64.9
2017-07-29T07:01:17.274Z,64.9
2017-07-29T07:01:58.280Z,63.2
2017-07-29T07:02:39.371Z,62.5
2017-07-29T07:03:20.694Z,63.5
2017-07-29T07:04:01.695Z,62.6
2017-07-29T07:04:42.802Z,62.4
2017-07-29T07:05:24.304Z,61.8
2017-07-29T07:06:05.504Z,61.7
2017-07-29T07:06:46.610Z,60.9
2017-07-29T07:07:27.612Z,60.5
2017-07-29T07:08:08.810Z,60.7
2017-07-29T07:08:49.915Z,59.1
2017-07-29T07:09:31.015Z,58.5
2017-07-29T07:10:12.117Z,58.6
2017-07-29T07:10:53.117Z,58.2
2017-07-29T07:11:34.423Z,57.9
2017-07-29T07:12:15.415Z,56.6
2017-07-29T07:12:56.715Z,56.3
2017-07-29T07:13:37.719Z,55.5
2017-07-29T07:14:18.817Z,55.6
2017-07-29T07:15:00.045Z,55.4
2017-07-29T07:15:41.147Z,56.5
2017-07-29T07:16:22.255Z,54.5
2017-07-29T07:17:03.968Z,55.4
2017-07-29T07:17:44.973Z,54.3
2017-07-29T07:18:25.974Z,54.5
2017-07-29T07:19:07.174Z,54.2
2017-07-29T07:19:48.170Z,54.7
2017-07-29T07:20:29.176Z,55.4
2017-07-29T07:21:10.277Z,56.9
2017-07-29T07:21:51.373Z,57.0
2017-07-29T07:22:32.477Z,57.9
2017-07-29T07:23:13.570Z,59.2
2017-07-29T07:23:54.664Z,59.1
2017-07-29T07:24:35.668Z,59.4
2017-07-29T07:25:16.664Z,58.9
2017-07-29T07:25:57.675Z,59.2
2017-07-29T07:26:38.676Z,59.3
2017-07-29T07:27:19.782Z,60.3
2017-07-29T07:28:00.675Z,60.6
2017-07-29T07:28:41.672Z,61.1
2017-07-29T07:29:22.680Z,61.4
2017-07-29T07:30:03.882Z,62.0
2017-07-29T07:30:44.984Z,63.3
2017-07-29T07:31:25.974Z,63.1
2017-07-29T07:32:07.079Z,63.9
2017-07-29T07:32:49.474Z,64.7
2017-07-29T07:33:30.568Z,65.3
2017-07-29T07:34:11.870Z,65.0
2017-07-29T07:34:53.066Z,64.8
2017-07-29T07:35:34.175Z,65.2
2017-07-29T07:36:15.538Z,65.9
2017-07-29T07:36:56.533Z,66.1
2017-07-29T07:37:37.535Z,67.4
2017-07-29T07:38:18.734Z,66.0
2017-07-29T07:38:59.840Z,65.8
2017-07-29T07:39:41.256Z,66.3
2017-07-29T07:40:22.359Z,66.5
2017-07-29T07:41:03.453Z,66.1
2017-07-29T07:41:44.854Z,66.4
2017-07-29T07:42:25.967Z,66.0
2017-07-29T07:43:07.236Z,64.9
2017-07-29T07:43:48.243Z,65.5
2017-07-29T07:44:29.475Z,64.0
2017-07-29T07:45:10.566Z,64.2
2017-07-29T07:45:51.654Z,63.0
2017-07-29T07:46:32.660Z,63.4
2017-07-29T07:47:14.016Z,63.7
2017-07-29T07:47:55.125Z,63.1
2017-07-29T07:48:36.138Z,63.9
2017-07-29T07:49:17.162Z,64.3
2017-07-29T07:49:58.284Z,65.1
2017-07-29T07:50:39.400Z,64.8
2017-07-29T07:51:20.439Z,65.8
2017-07-29T07:52:01.964Z,64.8
2017-07-29T07:52:42.966Z,65.0
2017-07-29T07:53:24.209Z,65.8
2017-07-29T07:54:05.301Z,66.2
2017-07-29T07:54:46.417Z,66.8
2017-07-29T07:55:27.611Z,66.5
2017-07-29T07:56:09.022Z,67.9
2017-07-29T07:56:50.116Z,68.3
2017-07-29T07:57:31.341Z,69.0
2017-07-29T07:58:12.346Z,67.8
2017-07-29T07:58:53.377Z,67.6
2017-07-29T07:59:34.718Z,68.0
2017-07-29T08:00:15.812Z,67.7
2017-07-29T08:00:56.819Z,68.2
2017-07-29T08:01:38.016Z,67.8
2017-07-29T08:02:19.125Z,68.4
2017-07-29T08:03:00.421Z,69.2
2017-07-29T08:03:41.498Z,69.0
2017-07-29T08:04:22.608Z,68.6
2017-07-29T08:05:03.607Z,69.0
2017-07-29T08:05:44.819Z,68.7
2017-07-29T08:06:25.924Z,68.6
2017-07-29T08:07:06.912Z,68.3
2017-07-29T08:07:48.006Z,68.4
2017-07-29T08:08:29.309Z,68.4
2017-07-29T08:09:10.410Z,68.2
2017-07-29T08:09:51.713Z,68.1
2017-07-29T08:10:32.812Z,68.2
2017-07-29T08:11:13.818Z,68.3
2017-07-29T08:11:54.808Z,68.4
2017-07-29T08:12:35.813Z,67.8
2017-07-29T08:13:16.808Z,68.0
2017-07-29T08:13:58.111Z,69.2
2017-07-29T08:14:39.101Z,68.6
2017-07-29T08:15:20.197Z,68.3
2017-07-29T08:16:01.299Z,68.5
2017-07-29T08:16:42.499Z,68.0
2017-07-29T08:17:23.502Z,67.9
2017-07-29T08:18:04.495Z,67.4
2017-07-29T08:18:45.601Z,67.5
2017-07-29T08:19:26.789Z,67.5
2017-07-29T08:20:07.790Z,68.0
2017-07-29T08:20:49.193Z,67.8
2017-07-29T08:21:30.390Z,67.6
2017-07-29T08:22:11.489Z,66.9
2017-07-29T08:22:52.583Z,67.2
2017-07-29T08:23:33.583Z,67.9
2017-07-29T08:24:14.578Z,68.1
2017-07-29T08:24:55.790Z,67.7
2017-07-29T08:25:36.784Z,68.5
2017-07-29T08:26:17.692Z,68.4
2017-07-29T08:26:58.690Z,67.9
2017-07-29T08:27:39.791Z,67.4
2017-07-29T08:28:20.989Z,67.6
2017-07-29T08:29:02.078Z,67.5
2017-07-29T08:29:43.199Z,66.9
2017-07-29T08:30:24.386Z,66.0
2017-07-29T08:31:05.582Z,65.2
2017-07-29T08:31:46.796Z,65.8
2017-07-29T08:32:27.800Z,64.8
2017-07-29T08:33:08.793Z,65.0
2017-07-29T08:33:49.794Z,65.2
2017-07-29T08:34:30.894Z,64.7
2017-07-29T08:35:11.997Z,64.1
2017-07-29T08:35:53.201Z,62.4
2017-07-29T08:36:34.304Z,60.3
2017-07-29T08:37:15.412Z,58.8
2017-07-29T08:37:56.716Z,59.3
2017-07-29T08:38:37.905Z,59.5
2017-07-29T08:39:18.914Z,58.7
2017-07-29T08:40:00.021Z,56.8
2017-07-29T08:40:41.120Z,55.0
2017-07-29T08:41:23.129Z,55.4
2017-07-29T08:42:04.239Z,57.0
2017-07-29T08:42:45.441Z,58.7
2017-07-29T08:43:26.643Z,59.7
2017-07-29T08:44:07.642Z,60.0
2017-07-29T08:44:52.002Z,60.7
2017-07-29T08:45:33.196Z,61.4
2017-07-29T08:46:14.301Z,62.1
2017-07-29T08:46:57.899Z,62.6
2017-07-29T08:47:38.921Z,63.1
2017-07-29T08:48:21.233Z,63.4
2017-07-29T08:49:02.330Z,63.8
2017-07-29T08:49:43.438Z,64.2
2017-07-29T08:50:24.433Z,64.7
2017-07-29T08:51:06.637Z,65.2
2017-07-29T08:51:47.636Z,66.2
2017-07-29T08:52:28.733Z,66.6
2017-07-29T08:53:09.934Z,66.6
2017-07-29T08:53:50.828Z,66.2
2017-07-29T08:54:32.426Z,66.6
2017-07-29T08:55:13.426Z,66.0
2017-07-29T08:55:54.423Z,66.5
2017-07-29T08:56:35.414Z,66.5
2017-07-29T08:57:16.515Z,66.6
2017-07-29T08:57:57.619Z,67.8
2017-07-29T08:58:38.814Z,67.3
2017-07-29T08:59:20.010Z,67.3
2017-07-29T09:00:01.043Z,68.0
2017-07-29T09:00:42.414Z,68.4
2017-07-29T09:01:23.520Z,68.0
2017-07-29T09:02:04.733Z,68.0
2017-07-29T09:02:45.946Z,69.8
2017-07-29T09:03:27.141Z,69.2
2017-07-29T09:04:08.140Z,69.0
2017-07-29T09:04:49.241Z,68.8
2017-07-29T09:05:30.349Z,69.2
2017-07-29T09:06:11.650Z,68.4
2017-07-29T09:06:53.161Z,68.2